createdAt,value
2022-11-02T01:15:43.597Z,100584.13
2022-11-02T03:16:36.420Z,100588.86
2022-11-02T03:43:42.592Z,100590.31
2022-11-02T03:52:20.909Z,100605.79
2022-11-02T04:25:51.679Z,100623.23
2022-11-02T04:47:57.359Z,100624.42
2022-11-02T06:09:49.393Z,100678.89
2022-11-02T06:20:08.159Z,100684.95
2022-11-02T06:42:11.632Z,100704.48
2022-11-02T06:52:51.037Z,100713.07
2022-11-02T07:03:09.993Z,100713.52
2022-11-02T07:13:23.496Z,100715.54
2022-11-02T07:23:29.794Z,100723.25
2022-11-02T07:33:55.862Z,100726.77
2022-11-02T07:44:24.822Z,100724.64
2022-11-02T08:05:02.079Z,100720.40
2022-11-02T08:15:07.999Z,100723.27
2022-11-02T08:35:27.247Z,100720.14
2022-11-02T08:46:25.301Z,100718.84
2022-11-02T08:57:55.589Z,100718.23
2022-11-02T09:08:35.274Z,100728.36
2022-11-02T09:19:25.856Z,100714.33
2022-11-02T09:53:57.000Z,100718.26
2022-11-02T10:04:58.603Z,100724.85
2022-11-02T10:15:56.392Z,100722.79
2022-11-02T10:27:47.266Z,100722.82
2022-11-02T10:39:41.445Z,100714.96
2022-11-02T10:51:08.932Z,100723.05
2022-11-02T11:02:27.765Z,100724.69
2022-11-02T11:25:51.537Z,100734.17
2022-11-02T11:48:18.410Z,100715.86
2022-11-02T11:59:01.039Z,100717.48
2022-11-02T12:32:56.802Z,100699.46
2022-11-02T12:44:17.187Z,100680.10
2022-11-02T13:07:02.099Z,100672.48
2022-11-02T13:17:52.741Z,100676.98
2022-11-02T13:29:00.090Z,100682.15
2022-11-02T13:40:20.157Z,100694.02
2022-11-02T14:03:06.869Z,100712.45
2022-11-02T14:14:08.325Z,100705.45
2022-11-02T14:25:08.450Z,100701.19
2022-11-02T14:36:14.648Z,100701.75
2022-11-02T14:46:33.393Z,100696.63
2022-11-02T14:57:22.146Z,100698.20
2022-11-02T15:07:44.510Z,100698.88
2022-11-02T15:29:26.273Z,100714.07
2022-11-02T15:41:00.389Z,100726.84
2022-11-02T15:51:50.613Z,100738.58
2022-11-02T16:02:41.881Z,100751.45
2022-11-02T16:15:26.046Z,100760.52
2022-11-02T16:24:54.015Z,100754.81
2022-11-02T16:35:01.801Z,100761.48
2022-11-02T16:46:02.287Z,100768.66
2022-11-02T16:56:50.383Z,100774.70
2022-11-02T17:07:27.710Z,100777.85
2022-11-02T17:18:32.002Z,100788.89
2022-11-02T17:28:44.657Z,100792.50
2022-11-02T17:39:03.875Z,100789.10
2022-11-02T17:49:30.701Z,100787.61
2022-11-02T17:59:43.902Z,100789.44
2022-11-02T18:21:08.363Z,100780.60
2022-11-02T18:31:19.882Z,100781.59
2022-11-02T18:41:47.528Z,100786.19
2022-11-02T18:52:17.024Z,100783.66
2022-11-02T19:36:46.624Z,100804.09
2022-11-02T19:47:24.218Z,100820.76
2022-11-02T19:57:38.671Z,100827.34
2022-11-02T20:08:26.329Z,100831.91
2022-11-02T20:31:39.629Z,100856.50
2022-11-02T20:42:15.129Z,100846.45
2022-11-02T20:53:12.839Z,100850.06
2022-11-02T21:03:27.056Z,100857.95
2022-11-02T21:47:04.568Z,100862.84
2022-11-02T21:58:39.076Z,100864.47
2022-11-02T22:09:53.666Z,100874.63
2022-11-02T22:20:49.967Z,100874.66
2022-11-02T22:32:12.512Z,100881.59
2022-11-02T22:44:47.295Z,100882.92
2022-11-02T23:05:00.080Z,100897.55
2022-11-02T23:15:40.664Z,100907.38
2022-11-02T23:37:02.435Z,100925.90
2022-11-02T23:47:17.829Z,100925.67
